sensor_id;sensor_type;location;lat;lon;timestamp;temperature;humidity
21844;DHT22;11084;52.482;9.108;2023-04-01T00:01:02;9.60;99.90
21844;DHT22;11084;52.482;9.108;2023-04-01T00:03:29;9.60;99.90
21844;DHT22;11084;52.482;9.108;2023-04-01T00:05:57;9.60;99.90
21844;DHT22;11084;52.482;9.108;2023-04-01T00:08:26;9.60;99.90
21844;DHT22;11084;52.482;9.108;2023-04-01T00:10:53;9.60;99.90
21844;DHT22;11084;52.482;9.108;2023-04-01T00:13:20;9.60;99.90
21844;DHT22;11084;52.482;9.108;2023-04-01T00:15:46;9.60;99.90
21844;DHT22;11084;52.482;9.108;2023-04-01T00:18:13;9.60;99.90
21844;DHT22;11084;52.482;9.108;2023-04-01T00:20:43;9.60;99.90
21844;DHT22;11084;52.482;9.108;2023-04-01T00:23:13;9.60;99.90
21844;DHT22;11084;52.482;9.108;2023-04-01T00:25:46;7.20;99.90
21844;DHT22;11084;52.482;9.108;2023-04-01T00:28:18;9.50;99.90
21844;DHT22;11084;52.482;9.108;2023-04-01T00:30:46;9.50;99.90
21844;DHT22;11084;52.482;9.108;2023-04-01T00:33:12;9.50;99.90
21844;DHT22;11084;52.482;9.108;2023-04-01T00:35:38;9.50;99.90
21844;DHT22;11084;52.482;9.108;2023-04-01T00:38:05;9.50;99.90
21844;DHT22;11084;52.482;9.108;2023-04-01T00:40:40;9.50;99.90
21844;DHT22;11084;52.482;9.108;2023-04-01T00:43:14;9.40;99.90
21844;DHT22;11084;52.482;9.108;2023-04-01T00:45:48;9.50;99.90
21844;DHT22;11084;52.482;9.108;2023-04-01T00:48:20;9.40;99.90
21844;DHT22;11084;52.482;9.108;2023-04-01T00:51:04;9.40;99.90
21844;DHT22;11084;52.482;9.108;2023-04-01T00:53:45;9.40;99.90
21844;DHT22;11084;52.482;9.108;2023-04-01T00:56:18;9.40;99.90
21844;DHT22;11084;52.482;9.108;2023-04-01T00:59:02;9.40;99.90
21844;DHT22;11084;52.482;9.108;2023-04-01T01:01:31;9.40;99.90
21844;DHT22;11084;52.482;9.108;2023-04-01T01:03:57;9.40;99.90
21844;DHT22;11084;52.482;9.108;2023-04-01T01:06:47;9.40;99.90
21844;DHT22;11084;52.482;9.108;2023-04-01T01:09:31;9.40;99.90
21844;DHT22;11084;52.482;9.108;2023-04-01T01:12:20;9.40;99.90
21844;DHT22;11084;52.482;9.108;2023-04-01T01:17:57;9.40;99.90
21844;DHT22;11084;52.482;9.108;2023-04-01T01:32:55;9.30;99.90
21844;DHT22;11084;52.482;9.108;2023-04-01T01:35:50;9.30;99.90
21844;DHT22;11084;52.482;9.108;2023-04-01T01:38:23;9.30;99.90
21844;DHT22;11084;52.482;9.108;2023-04-01T01:41:05;9.30;99.90
21844;DHT22;11084;52.482;9.108;2023-04-01T01:43:37;9.30;99.90
21844;DHT22;11084;52.482;9.108;2023-04-01T01:46:09;9.30;99.90
21844;DHT22;11084;52.482;9.108;2023-04-01T01:48:41;9.30;99.90
21844;DHT22;11084;52.482;9.108;2023-04-01T01:51:11;9.20;99.90
21844;DHT22;11084;52.482;9.108;2023-04-01T01:53:37;9.20;99.90
21844;DHT22;11084;52.482;9.108;2023-04-01T01:56:04;9.20;99.90
21844;DHT22;11084;52.482;9.108;2023-04-01T01:58:39;9.20;99.90
21844;DHT22;11084;52.482;9.108;2023-04-01T02:01:14;9.20;99.90
21844;DHT22;11084;52.482;9.108;2023-04-01T02:03:44;9.20;99.90
21844;DHT22;11084;52.482;9.108;2023-04-01T02:06:14;9.20;99.90
21844;DHT22;11084;52.482;9.108;2023-04-01T02:08:56;9.20;99.90
21844;DHT22;11084;52.482;9.108;2023-04-01T02:11:32;9.20;99.90
21844;DHT22;11084;52.482;9.108;2023-04-01T02:14:08;9.20;99.90
21844;DHT22;11084;52.482;9.108;2023-04-01T02:16:53;9.20;99.90
21844;DHT22;11084;52.482;9.108;2023-04-01T02:19:28;9.20;99.90
21844;DHT22;11084;52.482;9.108;2023-04-01T02:22:02;9.20;99.90
21844;DHT22;11084;52.482;9.108;2023-04-01T02:24:31;9.20;99.90
21844;DHT22;11084;52.482;9.108;2023-04-01T02:26:58;9.30;99.90
21844;DHT22;11084;52.482;9.108;2023-04-01T02:29:26;9.20;99.90
21844;DHT22;11084;52.482;9.108;2023-04-01T02:31:53;9.20;99.90
21844;DHT22;11084;52.482;9.108;2023-04-01T02:34:22;9.20;99.90
21844;DHT22;11084;52.482;9.108;2023-04-01T02:36:49;9.20;99.90
21844;DHT22;11084;52.482;9.108;2023-04-01T02:39:16;9.20;99.90
21844;DHT22;11084;52.482;9.108;2023-04-01T02:41:44;9.20;99.90
21844;DHT22;11084;52.482;9.108;2023-04-01T02:44:13;9.20;99.90
21844;DHT22;11084;52.482;9.108;2023-04-01T02:46:40;9.10;99.90
21844;DHT22;11084;52.482;9.108;2023-04-01T02:49:07;9.70;99.90
21844;DHT22;11084;52.482;9.108;2023-04-01T02:51:34;9.10;99.90
21844;DHT22;11084;52.482;9.108;2023-04-01T02:54:00;9.10;99.90
21844;DHT22;11084;52.482;9.108;2023-04-01T02:56:30;9.10;99.90
21844;DHT22;11084;52.482;9.108;2023-04-01T02:58:56;9.10;99.90
21844;DHT22;11084;52.482;9.108;2023-04-01T03:01:22;9.10;99.90
21844;DHT22;11084;52.482;9.108;2023-04-01T03:03:49;9.10;99.90
21844;DHT22;11084;52.482;9.108;2023-04-01T03:06:16;9.10;99.90
21844;DHT22;11084;52.482;9.108;2023-04-01T03:08:43;9.10;99.90
21844;DHT22;11084;52.482;9.108;2023-04-01T03:11:10;9.10;99.90
21844;DHT22;11084;52.482;9.108;2023-04-01T03:13:37;9.10;99.90
21844;DHT22;11084;52.482;9.108;2023-04-01T03:16:04;9.00;99.90
21844;DHT22;11084;52.482;9.108;2023-04-01T03:18:31;9.00;99.90
21844;DHT22;11084;52.482;9.108;2023-04-01T03:20:57;9.00;99.90
21844;DHT22;11084;52.482;9.108;2023-04-01T03:23:23;9.00;99.90
21844;DHT22;11084;52.482;9.108;2023-04-01T03:25:50;6.60;99.90
21844;DHT22;11084;52.482;9.108;2023-04-01T03:28:16;6.60;99.90
21844;DHT22;11084;52.482;9.108;2023-04-01T03:30:43;9.10;99.90
21844;DHT22;11084;52.482;9.108;2023-04-01T03:33:09;9.00;99.90
21844;DHT22;11084;52.482;9.108;2023-04-01T03:35:36;9.10;99.90
21844;DHT22;11084;52.482;9.108;2023-04-01T03:38:02;9.00;99.90
21844;DHT22;11084;52.482;9.108;2023-04-01T03:40:28;9.00;99.90
21844;DHT22;11084;52.482;9.108;2023-04-01T03:42:54;9.10;99.90
21844;DHT22;11084;52.482;9.108;2023-04-01T03:45:21;9.00;99.90
21844;DHT22;11084;52.482;9.108;2023-04-01T03:47:47;9.00;99.90
21844;DHT22;11084;52.482;9.108;2023-04-01T03:50:15;9.00;99.90
21844;DHT22;11084;52.482;9.108;2023-04-01T03:52:42;9.00;99.90
21844;DHT22;11084;52.482;9.108;2023-04-01T03:55:08;9.00;99.90
21844;DHT22;11084;52.482;9.108;2023-04-01T03:57:35;9.00;99.90
21844;DHT22;11084;52.482;9.108;2023-04-01T04:00:13;9.00;99.90
21844;DHT22;11084;52.482;9.108;2023-04-01T04:02:44;9.00;99.90
21844;DHT22;11084;52.482;9.108;2023-04-01T04:05:14;8.40;99.90
21844;DHT22;11084;52.482;9.108;2023-04-01T04:07:40;8.90;99.90
21844;DHT22;11084;52.482;9.108;2023-04-01T04:10:08;8.90;99.90
21844;DHT22;11084;52.482;9.108;2023-04-01T04:12:35;9.00;99.90
21844;DHT22;11084;52.482;9.108;2023-04-01T04:15:02;7.10;99.90
21844;DHT22;11084;52.482;9.108;2023-04-01T04:17:28;8.90;99.90
21844;DHT22;11084;52.482;9.108;2023-04-01T04:19:54;8.90;99.90
21844;DHT22;11084;52.482;9.108;2023-04-01T04:22:21;8.90;99.90
21844;DHT22;11084;52.482;9.108;2023-04-01T04:24:47;8.90;99.90
21844;DHT22;11084;52.482;9.108;2023-04-01T04:27:13;8.80;99.90
21844;DHT22;11084;52.482;9.108;2023-04-01T04:29:57;8.80;99.90
21844;DHT22;11084;52.482;9.108;2023-04-01T04:32:24;8.80;99.90
21844;DHT22;11084;52.482;9.108;2023-04-01T04:34:57;10.30;99.90
21844;DHT22;11084;52.482;9.108;2023-04-01T04:37:27;8.80;99.90
21844;DHT22;11084;52.482;9.108;2023-04-01T04:40:00;8.80;99.90
21844;DHT22;11084;52.482;9.108;2023-04-01T04:42:33;7.90;99.90
21844;DHT22;11084;52.482;9.108;2023-04-01T04:45:06;8.80;99.90
21844;DHT22;11084;52.482;9.108;2023-04-01T04:47:39;8.80;99.90
21844;DHT22;11084;52.482;9.108;2023-04-01T04:50:06;8.80;99.90
21844;DHT22;11084;52.482;9.108;2023-04-01T04:52:33;8.80;99.90
21844;DHT22;11084;52.482;9.108;2023-04-01T04:54:58;8.80;99.90
21844;DHT22;11084;52.482;9.108;2023-04-01T04:57:25;8.80;99.90
21844;DHT22;11084;52.482;9.108;2023-04-01T04:59:54;8.80;99.90
21844;DHT22;11084;52.482;9.108;2023-04-01T05:02:36;8.70;99.90
21844;DHT22;11084;52.482;9.108;2023-04-01T05:05:02;8.70;99.90
21844;DHT22;11084;52.482;9.108;2023-04-01T05:07:29;8.70;99.90
21844;DHT22;11084;52.482;9.108;2023-04-01T05:09:56;8.70;99.90
21844;DHT22;11084;52.482;9.108;2023-04-01T05:12:22;8.70;99.90
21844;DHT22;11084;52.482;9.108;2023-04-01T05:14:59;8.70;99.90
21844;DHT22;11084;52.482;9.108;2023-04-01T05:17:26;8.70;99.90
21844;DHT22;11084;52.482;9.108;2023-04-01T05:19:52;8.70;99.90
21844;DHT22;11084;52.482;9.108;2023-04-01T05:22:20;8.80;99.90
21844;DHT22;11084;52.482;9.108;2023-04-01T05:24:46;8.80;99.90
21844;DHT22;11084;52.482;9.108;2023-04-01T05:27:12;8.80;99.90
21844;DHT22;11084;52.482;9.108;2023-04-01T05:29:40;8.80;99.90
21844;DHT22;11084;52.482;9.108;2023-04-01T05:32:09;8.80;99.90
21844;DHT22;11084;52.482;9.108;2023-04-01T05:34:35;8.80;99.90
21844;DHT22;11084;52.482;9.108;2023-04-01T05:37:01;8.80;99.90
21844;DHT22;11084;52.482;9.108;2023-04-01T05:39:28;8.90;99.90
21844;DHT22;11084;52.482;9.108;2023-04-01T05:41:54;6.70;99.90
21844;DHT22;11084;52.482;9.108;2023-04-01T05:44:20;8.80;99.90
21844;DHT22;11084;52.482;9.108;2023-04-01T05:47:03;8.90;99.90
21844;DHT22;11084;52.482;9.108;2023-04-01T05:49:30;8.90;99.90
21844;DHT22;11084;52.482;9.108;2023-04-01T05:51:56;8.90;99.90
21844;DHT22;11084;52.482;9.108;2023-04-01T05:54:22;8.90;99.90
21844;DHT22;11084;52.482;9.108;2023-04-01T05:56:49;8.90;99.90
21844;DHT22;11084;52.482;9.108;2023-04-01T05:59:16;8.90;99.90
21844;DHT22;11084;52.482;9.108;2023-04-01T06:01:43;8.90;99.90
21844;DHT22;11084;52.482;9.108;2023-04-01T06:04:17;8.90;99.90
21844;DHT22;11084;52.482;9.108;2023-04-01T06:06:45;9.00;99.90
21844;DHT22;11084;52.482;9.108;2023-04-01T06:09:23;9.00;99.90
21844;DHT22;11084;52.482;9.108;2023-04-01T06:26:43;9.10;99.90
21844;DHT22;11084;52.482;9.108;2023-04-01T06:35:40;9.20;99.90
21844;DHT22;11084;52.482;9.108;2023-04-01T06:44:59;9.30;99.90
21844;DHT22;11084;52.482;9.108;2023-04-01T06:51:12;9.40;99.90
21844;DHT22;11084;52.482;9.108;2023-04-01T06:54:21;9.40;99.90
21844;DHT22;11084;52.482;9.108;2023-04-01T06:57:35;9.40;99.90
21844;DHT22;11084;52.482;9.108;2023-04-01T07:00:14;9.50;99.90
21844;DHT22;11084;52.482;9.108;2023-04-01T07:02:54;9.50;99.90
21844;DHT22;11084;52.482;9.108;2023-04-01T07:05:24;9.50;99.90
21844;DHT22;11084;52.482;9.108;2023-04-01T07:07:54;9.60;99.90
21844;DHT22;11084;52.482;9.108;2023-04-01T07:13:49;9.70;99.90
21844;DHT22;11084;52.482;9.108;2023-04-01T07:16:42;9.70;99.90
21844;DHT22;11084;52.482;9.108;2023-04-01T07:19:31;9.70;99.90
21844;DHT22;11084;52.482;9.108;2023-04-01T07:25:16;9.80;99.90
21844;DHT22;11084;52.482;9.108;2023-04-01T07:28:20;9.90;99.90
21844;DHT22;11084;52.482;9.108;2023-04-01T07:55:16;10.50;99.90
21844;DHT22;11084;52.482;9.108;2023-04-01T08:07:21;10.80;99.90
21844;DHT22;11084;52.482;9.108;2023-04-01T08:14:46;10.80;99.90
21844;DHT22;11084;52.482;9.108;2023-04-01T08:20:02;10.90;99.90
21844;DHT22;11084;52.482;9.108;2023-04-01T08:22:51;11.00;99.90
21844;DHT22;11084;52.482;9.108;2023-04-01T08:25:30;11.10;99.90
21844;DHT22;11084;52.482;9.108;2023-04-01T08:30:41;11.30;99.90
21844;DHT22;11084;52.482;9.108;2023-04-01T08:36:10;11.60;99.90
21844;DHT22;11084;52.482;9.108;2023-04-01T08:38:49;11.70;99.90
21844;DHT22;11084;52.482;9.108;2023-04-01T08:47:52;11.90;99.90
21844;DHT22;11084;52.482;9.108;2023-04-01T09:00:56;12.30;99.90
21844;DHT22;11084;52.482;9.108;2023-04-01T09:31:29;12.50;99.90
21844;DHT22;11084;52.482;9.108;2023-04-01T09:35:10;12.50;99.90
21844;DHT22;11084;52.482;9.108;2023-04-01T09:40:57;12.50;99.90
21844;DHT22;11084;52.482;9.108;2023-04-01T09:44:25;11.10;99.90
21844;DHT22;11084;52.482;9.108;2023-04-01T10:27:06;12.60;99.90
21844;DHT22;11084;52.482;9.108;2023-04-01T10:36:00;12.60;99.90
21844;DHT22;11084;52.482;9.108;2023-04-01T10:39:00;12.50;99.90
21844;DHT22;11084;52.482;9.108;2023-04-01T10:53:22;11.90;99.90
21844;DHT22;11084;52.482;9.108;2023-04-01T11:21:53;11.90;99.90
21844;DHT22;11084;52.482;9.108;2023-04-01T11:34:04;11.70;99.90
21844;DHT22;11084;52.482;9.108;2023-04-01T11:46:34;11.70;99.90
21844;DHT22;11084;52.482;9.108;2023-04-01T12:07:06;11.60;99.90
21844;DHT22;11084;52.482;9.108;2023-04-01T12:21:17;11.40;99.90
21844;DHT22;11084;52.482;9.108;2023-04-01T12:30:19;11.30;99.90
21844;DHT22;11084;52.482;9.108;2023-04-01T12:33:28;11.30;99.90
21844;DHT22;11084;52.482;9.108;2023-04-01T12:41:59;11.20;99.90
21844;DHT22;11084;52.482;9.108;2023-04-01T12:54:14;11.20;99.90
21844;DHT22;11084;52.482;9.108;2023-04-01T13:05:31;11.20;99.90
21844;DHT22;11084;52.482;9.108;2023-04-01T13:17:05;11.20;99.90
21844;DHT22;11084;52.482;9.108;2023-04-01T13:23:10;11.10;99.90
21844;DHT22;11084;52.482;9.108;2023-04-01T13:28:22;11.10;99.90
21844;DHT22;11084;52.482;9.108;2023-04-01T13:31:12;11.00;99.90
21844;DHT22;11084;52.482;9.108;2023-04-01T13:43:23;10.90;99.90
21844;DHT22;11084;52.482;9.108;2023-04-01T13:46:27;10.90;99.90
21844;DHT22;11084;52.482;9.108;2023-04-01T13:49:18;10.90;99.90
21844;DHT22;11084;52.482;9.108;2023-04-01T13:52:27;10.90;99.90
21844;DHT22;11084;52.482;9.108;2023-04-01T13:58:30;10.70;99.90
21844;DHT22;11084;52.482;9.108;2023-04-01T14:01:10;10.40;99.90
21844;DHT22;11084;52.482;9.108;2023-04-01T14:12:36;10.00;99.90
21844;DHT22;11084;52.482;9.108;2023-04-01T14:15:25;9.90;99.90
21844;DHT22;11084;52.482;9.108;2023-04-01T14:23:41;9.70;99.90
21844;DHT22;11084;52.482;9.108;2023-04-01T14:30:04;9.60;99.90
21844;DHT22;11084;52.482;9.108;2023-04-01T14:32:51;9.50;99.90
21844;DHT22;11084;52.482;9.108;2023-04-01T14:50:02;9.00;99.90
21844;DHT22;11084;52.482;9.108;2023-04-01T14:52:38;8.90;99.90
21844;DHT22;11084;52.482;9.108;2023-04-01T14:55:26;8.90;99.90
21844;DHT22;11084;52.482;9.108;2023-04-01T14:58:15;8.80;99.90
21844;DHT22;11084;52.482;9.108;2023-04-01T15:03:33;8.80;99.90
21844;DHT22;11084;52.482;9.108;2023-04-01T15:15:45;8.70;99.90
21844;DHT22;11084;52.482;9.108;2023-04-01T15:23:38;8.60;99.90
21844;DHT22;11084;52.482;9.108;2023-04-01T15:36:08;8.50;99.90
21844;DHT22;11084;52.482;9.108;2023-04-01T15:38:48;8.60;99.90
21844;DHT22;11084;52.482;9.108;2023-04-01T15:41:24;8.50;99.90
21844;DHT22;11084;52.482;9.108;2023-04-01T15:43:53;8.50;99.90
21844;DHT22;11084;52.482;9.108;2023-04-01T15:55:26;8.20;99.90
21844;DHT22;11084;52.482;9.108;2023-04-01T16:13:04;7.90;99.90
21844;DHT22;11084;52.482;9.108;2023-04-01T16:15:50;7.90;99.90
21844;DHT22;11084;52.482;9.108;2023-04-01T16:22:39;7.90;99.90
21844;DHT22;11084;52.482;9.108;2023-04-01T16:25:44;7.90;99.90
21844;DHT22;11084;52.482;9.108;2023-04-01T16:34:31;7.70;99.90
21844;DHT22;11084;52.482;9.108;2023-04-01T16:37:13;7.80;99.90
21844;DHT22;11084;52.482;9.108;2023-04-01T16:39:52;7.80;99.90
21844;DHT22;11084;52.482;9.108;2023-04-01T16:45:33;7.70;99.90
21844;DHT22;11084;52.482;9.108;2023-04-01T16:48:13;7.60;99.90
21844;DHT22;11084;52.482;9.108;2023-04-01T16:53:35;7.40;99.90
21844;DHT22;11084;52.482;9.108;2023-04-01T16:56:21;7.30;99.90
21844;DHT22;11084;52.482;9.108;2023-04-01T16:58:57;7.30;99.90
21844;DHT22;11084;52.482;9.108;2023-04-01T17:01:51;7.30;99.90
21844;DHT22;11084;52.482;9.108;2023-04-01T17:15:40;7.00;99.90
21844;DHT22;11084;52.482;9.108;2023-04-01T17:25:17;6.90;99.90
21844;DHT22;11084;52.482;9.108;2023-04-01T17:31:18;6.90;99.90
21844;DHT22;11084;52.482;9.108;2023-04-01T17:41:54;6.80;99.90
21844;DHT22;11084;52.482;9.108;2023-04-01T17:47:25;6.70;99.90
21844;DHT22;11084;52.482;9.108;2023-04-01T17:49:59;6.70;99.90
21844;DHT22;11084;52.482;9.108;2023-04-01T17:55:42;6.60;99.90
21844;DHT22;11084;52.482;9.108;2023-04-01T17:58:22;6.60;99.90
21844;DHT22;11084;52.482;9.108;2023-04-01T18:01:30;6.50;99.90
21844;DHT22;11084;52.482;9.108;2023-04-01T18:04:26;6.50;99.90
21844;DHT22;11084;52.482;9.108;2023-04-01T18:16:26;6.30;99.90
21844;DHT22;11084;52.482;9.108;2023-04-01T18:21:56;6.20;99.90
21844;DHT22;11084;52.482;9.108;2023-04-01T18:25:37;6.20;99.90
21844;DHT22;11084;52.482;9.108;2023-04-01T18:34:06;6.10;99.90
21844;DHT22;11084;52.482;9.108;2023-04-01T18:39:33;6.10;99.90
21844;DHT22;11084;52.482;9.108;2023-04-01T18:45:27;6.00;99.90
21844;DHT22;11084;52.482;9.108;2023-04-01T18:48:17;6.00;99.90
21844;DHT22;11084;52.482;9.108;2023-04-01T18:51:25;6.00;99.90
21844;DHT22;11084;52.482;9.108;2023-04-01T18:54:05;6.00;99.90
21844;DHT22;11084;52.482;9.108;2023-04-01T18:56:41;5.90;99.90
21844;DHT22;11084;52.482;9.108;2023-04-01T18:59:57;5.90;99.90
21844;DHT22;11084;52.482;9.108;2023-04-01T19:02:40;5.90;99.90
21844;DHT22;11084;52.482;9.108;2023-04-01T19:05:20;5.90;99.90
21844;DHT22;11084;52.482;9.108;2023-04-01T19:07:54;5.90;99.90
21844;DHT22;11084;52.482;9.108;2023-04-01T19:18:50;5.80;99.90
21844;DHT22;11084;52.482;9.108;2023-04-01T19:40:00;5.50;99.90
21844;DHT22;11084;52.482;9.108;2023-04-01T19:42:32;5.50;99.90
21844;DHT22;11084;52.482;9.108;2023-04-01T20:00:21;5.30;99.90
21844;DHT22;11084;52.482;9.108;2023-04-01T20:03:23;5.20;99.90
21844;DHT22;11084;52.482;9.108;2023-04-01T20:05:59;5.10;99.90
21844;DHT22;11084;52.482;9.108;2023-04-01T20:12:16;5.10;99.90
21844;DHT22;11084;52.482;9.108;2023-04-01T20:14:58;5.00;99.90
21844;DHT22;11084;52.482;9.108;2023-04-01T20:17:39;5.00;99.90
21844;DHT22;11084;52.482;9.108;2023-04-01T20:25:22;4.90;99.90
21844;DHT22;11084;52.482;9.108;2023-04-01T20:28:00;4.90;99.90
21844;DHT22;11084;52.482;9.108;2023-04-01T20:47:55;4.80;99.90
21844;DHT22;11084;52.482;9.108;2023-04-01T20:50:49;4.80;99.90
21844;DHT22;11084;52.482;9.108;2023-04-01T20:56:40;4.70;99.90
21844;DHT22;11084;52.482;9.108;2023-04-01T21:17:16;4.50;99.90
21844;DHT22;11084;52.482;9.108;2023-04-01T21:29:08;4.40;99.90
21844;DHT22;11084;52.482;9.108;2023-04-01T22:00:23;4.20;99.90
21844;DHT22;11084;52.482;9.108;2023-04-01T22:08:45;4.20;99.90
21844;DHT22;11084;52.482;9.108;2023-04-01T22:31:26;4.00;99.90
21844;DHT22;11084;52.482;9.108;2023-04-01T22:34:04;4.00;99.90
21844;DHT22;11084;52.482;9.108;2023-04-01T22:36:56;3.90;99.90
21844;DHT22;11084;52.482;9.108;2023-04-01T22:52:53;3.80;99.90
21844;DHT22;11084;52.482;9.108;2023-04-01T22:55:29;3.80;99.90
21844;DHT22;11084;52.482;9.108;2023-04-01T22:58:16;3.80;99.90
21844;DHT22;11084;52.482;9.108;2023-04-01T23:01:10;3.70;99.90
21844;DHT22;11084;52.482;9.108;2023-04-01T23:03:41;3.60;99.90
21844;DHT22;11084;52.482;9.108;2023-04-01T23:06:19;0.90;99.90
21844;DHT22;11084;52.482;9.108;2023-04-01T23:08:58;3.50;99.90
21844;DHT22;11084;52.482;9.108;2023-04-01T23:12:32;3.50;99.90
21844;DHT22;11084;52.482;9.108;2023-04-01T23:14:50;3.40;99.90
21844;DHT22;11084;52.482;9.108;2023-04-01T23:17:58;3.40;99.90
21844;DHT22;11084;52.482;9.108;2023-04-01T23:29:03;3.30;99.90
21844;DHT22;11084;52.482;9.108;2023-04-01T23:31:40;3.30;99.90
21844;DHT22;11084;52.482;9.108;2023-04-01T23:36:48;3.30;99.90
21844;DHT22;11084;52.482;9.108;2023-04-01T23:42:05;3.30;99.90
21844;DHT22;11084;52.482;9.108;2023-04-01T23:44:32;3.20;99.90
21844;DHT22;11084;52.482;9.108;2023-04-01T23:46:59;3.30;99.90
21844;DHT22;11084;52.482;9.108;2023-04-01T23:49:36;3.20;99.90
21844;DHT22;11084;52.482;9.108;2023-04-01T23:52:30;3.30;99.90
21844;DHT22;11084;52.482;9.108;2023-04-01T23:55:21;3.30;99.90
